sensor_id;sensor_type;location;lat;lon;timestamp;P1;durP1;ratioP1;P2;durP2;ratioP2
56267;SDS011;42175;46.930;9.532;2023-03-01T00:02:20;13.95;;;7.97;;
56267;SDS011;42175;46.930;9.532;2023-03-01T00:04:46;11.60;;;7.45;;
56267;SDS011;42175;46.930;9.532;2023-03-01T00:07:12;13.07;;;7.88;;
56267;SDS011;42175;46.930;9.532;2023-03-01T00:09:38;14.90;;;7.18;;
56267;SDS011;42175;46.930;9.532;2023-03-01T00:12:05;12.50;;;8.07;;
56267;SDS011;42175;46.930;9.532;2023-03-01T00:14:31;10.07;;;7.15;;
56267;SDS011;42175;46.930;9.532;2023-03-01T00:16:57;9.93;;;7.10;;
56267;SDS011;42175;46.930;9.532;2023-03-01T00:19:23;11.38;;;6.80;;
56267;SDS011;42175;46.930;9.532;2023-03-01T00:21:49;9.63;;;6.82;;
56267;SDS011;42175;46.930;9.532;2023-03-01T00:24:14;12.32;;;7.88;;
56267;SDS011;42175;46.930;9.532;2023-03-01T00:26:40;8.55;;;6.35;;
56267;SDS011;42175;46.930;9.532;2023-03-01T00:29:06;12.45;;;7.60;;
56267;SDS011;42175;46.930;9.532;2023-03-01T00:31:32;9.60;;;6.95;;
56267;SDS011;42175;46.930;9.532;2023-03-01T00:33:59;9.85;;;7.28;;
56267;SDS011;42175;46.930;9.532;2023-03-01T00:36:27;13.98;;;7.78;;
56267;SDS011;42175;46.930;9.532;2023-03-01T00:38:54;11.73;;;8.10;;
56267;SDS011;42175;46.930;9.532;2023-03-01T00:41:21;9.68;;;7.03;;
56267;SDS011;42175;46.930;9.532;2023-03-01T00:43:48;9.32;;;7.05;;
56267;SDS011;42175;46.930;9.532;2023-03-01T00:46:18;13.20;;;7.93;;
56267;SDS011;42175;46.930;9.532;2023-03-01T00:48:45;10.30;;;6.95;;
56267;SDS011;42175;46.930;9.532;2023-03-01T00:51:15;10.88;;;7.05;;
56267;SDS011;42175;46.930;9.532;2023-03-01T00:53:43;8.48;;;7.13;;
56267;SDS011;42175;46.930;9.532;2023-03-01T00:56:10;7.65;;;5.90;;
56267;SDS011;42175;46.930;9.532;2023-03-01T00:58:37;9.05;;;6.43;;
56267;SDS011;42175;46.930;9.532;2023-03-01T01:01:09;9.13;;;6.82;;
56267;SDS011;42175;46.930;9.532;2023-03-01T01:03:51;11.13;;;6.95;;
56267;SDS011;42175;46.930;9.532;2023-03-01T01:06:23;9.57;;;7.25;;
56267;SDS011;42175;46.930;9.532;2023-03-01T01:08:55;10.60;;;6.70;;
56267;SDS011;42175;46.930;9.532;2023-03-01T01:11:22;9.35;;;6.53;;
56267;SDS011;42175;46.930;9.532;2023-03-01T01:13:50;9.48;;;6.38;;
56267;SDS011;42175;46.930;9.532;2023-03-01T01:16:17;9.20;;;6.70;;
56267;SDS011;42175;46.930;9.532;2023-03-01T01:18:43;8.25;;;5.93;;
56267;SDS011;42175;46.930;9.532;2023-03-01T01:21:11;8.88;;;6.75;;
56267;SDS011;42175;46.930;9.532;2023-03-01T01:23:39;10.45;;;6.38;;
56267;SDS011;42175;46.930;9.532;2023-03-01T01:26:10;7.82;;;5.82;;
56267;SDS011;42175;46.930;9.532;2023-03-01T01:28:38;8.68;;;6.75;;
56267;SDS011;42175;46.930;9.532;2023-03-01T01:31:04;10.95;;;6.72;;
56267;SDS011;42175;46.930;9.532;2023-03-01T01:33:31;9.32;;;6.50;;
56267;SDS011;42175;46.930;9.532;2023-03-01T01:35:57;8.85;;;6.43;;
56267;SDS011;42175;46.930;9.532;2023-03-01T01:38:23;7.97;;;5.88;;
56267;SDS011;42175;46.930;9.532;2023-03-01T01:40:49;7.72;;;6.20;;
56267;SDS011;42175;46.930;9.532;2023-03-01T01:43:23;9.32;;;7.00;;
56267;SDS011;42175;46.930;9.532;2023-03-01T01:46:03;9.77;;;6.50;;
56267;SDS011;42175;46.930;9.532;2023-03-01T01:48:55;11.32;;;6.35;;
56267;SDS011;42175;46.930;9.532;2023-03-01T01:51:28;8.30;;;6.28;;
56267;SDS011;42175;46.930;9.532;2023-03-01T01:54:05;8.70;;;6.38;;
56267;SDS011;42175;46.930;9.532;2023-03-01T01:56:41;8.45;;;6.32;;
56267;SDS011;42175;46.930;9.532;2023-03-01T01:59:11;8.35;;;5.90;;
56267;SDS011;42175;46.930;9.532;2023-03-01T02:01:37;8.00;;;6.40;;
56267;SDS011;42175;46.930;9.532;2023-03-01T02:04:03;8.45;;;6.10;;
56267;SDS011;42175;46.930;9.532;2023-03-01T02:06:36;7.38;;;5.57;;
56267;SDS011;42175;46.930;9.532;2023-03-01T02:09:13;7.90;;;5.93;;
56267;SDS011;42175;46.930;9.532;2023-03-01T02:11:40;8.45;;;6.40;;
56267;SDS011;42175;46.930;9.532;2023-03-01T02:14:08;8.98;;;6.05;;
56267;SDS011;42175;46.930;9.532;2023-03-01T02:16:40;8.50;;;6.20;;
56267;SDS011;42175;46.930;9.532;2023-03-01T02:19:14;9.57;;;6.63;;
56267;SDS011;42175;46.930;9.532;2023-03-01T02:21:56;9.35;;;6.68;;
56267;SDS011;42175;46.930;9.532;2023-03-01T02:27:05;7.18;;;6.00;;
56267;SDS011;42175;46.930;9.532;2023-03-01T02:29:46;7.38;;;5.70;;
56267;SDS011;42175;46.930;9.532;2023-03-01T02:32:12;6.63;;;5.78;;
56267;SDS011;42175;46.930;9.532;2023-03-01T02:34:40;8.15;;;6.13;;
56267;SDS011;42175;46.930;9.532;2023-03-01T02:37:11;7.50;;;5.20;;
56267;SDS011;42175;46.930;9.532;2023-03-01T02:39:48;6.65;;;5.60;;
56267;SDS011;42175;46.930;9.532;2023-03-01T02:42:18;13.13;;;6.35;;
56267;SDS011;42175;46.930;9.532;2023-03-01T02:44:49;8.60;;;5.90;;
56267;SDS011;42175;46.930;9.532;2023-03-01T02:47:15;9.20;;;6.00;;
56267;SDS011;42175;46.930;9.532;2023-03-01T02:49:40;8.27;;;5.57;;
56267;SDS011;42175;46.930;9.532;2023-03-01T02:57:34;9.77;;;5.90;;
56267;SDS011;42175;46.930;9.532;2023-03-01T03:00:06;7.57;;;5.40;;
56267;SDS011;42175;46.930;9.532;2023-03-01T03:02:36;8.30;;;6.15;;
56267;SDS011;42175;46.930;9.532;2023-03-01T03:05:03;7.72;;;5.90;;
56267;SDS011;42175;46.930;9.532;2023-03-01T03:07:31;8.35;;;6.22;;
56267;SDS011;42175;46.930;9.532;2023-03-01T03:09:59;8.27;;;5.63;;
56267;SDS011;42175;46.930;9.532;2023-03-01T03:12:25;6.20;;;5.30;;
56267;SDS011;42175;46.930;9.532;2023-03-01T03:14:51;6.85;;;5.72;;
56267;SDS011;42175;46.930;9.532;2023-03-01T03:17:16;8.75;;;6.30;;
56267;SDS011;42175;46.930;9.532;2023-03-01T03:19:42;6.38;;;5.07;;
56267;SDS011;42175;46.930;9.532;2023-03-01T03:22:13;10.05;;;5.75;;
56267;SDS011;42175;46.930;9.532;2023-03-01T03:24:39;9.68;;;5.72;;
56267;SDS011;42175;46.930;9.532;2023-03-01T03:27:05;9.23;;;5.70;;
56267;SDS011;42175;46.930;9.532;2023-03-01T03:29:32;8.57;;;6.32;;
56267;SDS011;42175;46.930;9.532;2023-03-01T03:31:58;6.03;;;5.43;;
56267;SDS011;42175;46.930;9.532;2023-03-01T03:34:24;7.07;;;5.03;;
56267;SDS011;42175;46.930;9.532;2023-03-01T03:36:56;6.25;;;5.20;;
56267;SDS011;42175;46.930;9.532;2023-03-01T03:39:25;7.30;;;5.20;;
56267;SDS011;42175;46.930;9.532;2023-03-01T03:41:52;6.60;;;5.60;;
56267;SDS011;42175;46.930;9.532;2023-03-01T03:44:19;6.82;;;5.72;;
56267;SDS011;42175;46.930;9.532;2023-03-01T03:46:45;6.63;;;4.85;;
56267;SDS011;42175;46.930;9.532;2023-03-01T03:49:10;7.47;;;5.22;;
56267;SDS011;42175;46.930;9.532;2023-03-01T03:51:36;6.13;;;5.38;;
56267;SDS011;42175;46.930;9.532;2023-03-01T03:54:02;7.15;;;5.43;;
56267;SDS011;42175;46.930;9.532;2023-03-01T03:56:27;7.30;;;5.72;;
56267;SDS011;42175;46.930;9.532;2023-03-01T03:58:53;9.48;;;6.03;;
56267;SDS011;42175;46.930;9.532;2023-03-01T04:01:19;5.80;;;4.72;;
56267;SDS011;42175;46.930;9.532;2023-03-01T04:03:44;8.57;;;5.32;;
56267;SDS011;42175;46.930;9.532;2023-03-01T04:06:12;6.65;;;5.53;;
56267;SDS011;42175;46.930;9.532;2023-03-01T04:08:39;6.47;;;5.20;;
56267;SDS011;42175;46.930;9.532;2023-03-01T04:11:05;5.45;;;4.68;;
56267;SDS011;42175;46.930;9.532;2023-03-01T04:13:51;5.80;;;5.00;;
56267;SDS011;42175;46.930;9.532;2023-03-01T04:16:18;5.82;;;5.22;;
56267;SDS011;42175;46.930;9.532;2023-03-01T04:18:44;8.48;;;5.68;;
56267;SDS011;42175;46.930;9.532;2023-03-01T04:21:10;6.60;;;5.40;;
56267;SDS011;42175;46.930;9.532;2023-03-01T04:23:36;6.55;;;5.15;;
56267;SDS011;42175;46.930;9.532;2023-03-01T04:26:03;7.75;;;5.50;;
56267;SDS011;42175;46.930;9.532;2023-03-01T04:28:30;6.65;;;5.45;;
56267;SDS011;42175;46.930;9.532;2023-03-01T04:31:02;7.18;;;5.57;;
56267;SDS011;42175;46.930;9.532;2023-03-01T04:33:38;7.00;;;5.30;;
56267;SDS011;42175;46.930;9.532;2023-03-01T04:36:14;6.03;;;5.40;;
56267;SDS011;42175;46.930;9.532;2023-03-01T04:38:41;6.07;;;5.03;;
56267;SDS011;42175;46.930;9.532;2023-03-01T04:41:12;6.82;;;4.88;;
56267;SDS011;42175;46.930;9.532;2023-03-01T04:43:40;6.50;;;5.20;;
56267;SDS011;42175;46.930;9.532;2023-03-01T04:46:08;7.47;;;5.43;;
56267;SDS011;42175;46.930;9.532;2023-03-01T04:48:36;7.25;;;5.57;;
56267;SDS011;42175;46.930;9.532;2023-03-01T04:51:04;6.40;;;5.35;;
56267;SDS011;42175;46.930;9.532;2023-03-01T04:53:30;8.13;;;4.70;;
56267;SDS011;42175;46.930;9.532;2023-03-01T04:55:57;6.38;;;4.90;;
56267;SDS011;42175;46.930;9.532;2023-03-01T04:58:24;6.15;;;5.07;;
56267;SDS011;42175;46.930;9.532;2023-03-01T05:00:52;8.27;;;5.00;;
56267;SDS011;42175;46.930;9.532;2023-03-01T05:03:18;6.60;;;4.75;;
56267;SDS011;42175;46.930;9.532;2023-03-01T05:05:47;7.13;;;4.97;;
56267;SDS011;42175;46.930;9.532;2023-03-01T05:08:15;8.80;;;4.97;;
56267;SDS011;42175;46.930;9.532;2023-03-01T05:10:44;6.65;;;5.18;;
56267;SDS011;42175;46.930;9.532;2023-03-01T05:13:13;6.20;;;5.10;;
56267;SDS011;42175;46.930;9.532;2023-03-01T05:15:46;6.57;;;5.55;;
56267;SDS011;42175;46.930;9.532;2023-03-01T05:18:13;6.10;;;5.03;;
56267;SDS011;42175;46.930;9.532;2023-03-01T05:20:39;6.88;;;4.85;;
56267;SDS011;42175;46.930;9.532;2023-03-01T05:23:04;8.63;;;5.65;;
56267;SDS011;42175;46.930;9.532;2023-03-01T05:25:31;5.40;;;4.45;;
56267;SDS011;42175;46.930;9.532;2023-03-01T05:28:01;8.18;;;5.32;;
56267;SDS011;42175;46.930;9.532;2023-03-01T05:30:30;6.63;;;5.43;;
56267;SDS011;42175;46.930;9.532;2023-03-01T05:32:57;9.00;;;4.97;;
56267;SDS011;42175;46.930;9.532;2023-03-01T05:35:23;7.57;;;5.20;;
56267;SDS011;42175;46.930;9.532;2023-03-01T05:37:49;6.38;;;5.00;;
56267;SDS011;42175;46.930;9.532;2023-03-01T05:40:17;8.13;;;5.05;;
56267;SDS011;42175;46.930;9.532;2023-03-01T05:42:45;11.10;;;5.50;;
56267;SDS011;42175;46.930;9.532;2023-03-01T05:45:21;16.00;;;5.10;;
56267;SDS011;42175;46.930;9.532;2023-03-01T05:47:49;9.52;;;5.13;;
56267;SDS011;42175;46.930;9.532;2023-03-01T05:50:16;8.82;;;5.47;;
56267;SDS011;42175;46.930;9.532;2023-03-01T05:53:03;12.27;;;5.03;;
56267;SDS011;42175;46.930;9.532;2023-03-01T05:55:32;8.55;;;4.90;;
56267;SDS011;42175;46.930;9.532;2023-03-01T05:57:59;5.70;;;4.65;;
56267;SDS011;42175;46.930;9.532;2023-03-01T06:00:26;29.90;;;15.43;;
56267;SDS011;42175;46.930;9.532;2023-03-01T06:02:55;55.60;;;27.27;;
56267;SDS011;42175;46.930;9.532;2023-03-01T06:05:22;69.20;;;29.92;;
56267;SDS011;42175;46.930;9.532;2023-03-01T06:07:49;63.63;;;29.73;;
56267;SDS011;42175;46.930;9.532;2023-03-01T06:10:15;74.88;;;34.85;;
56267;SDS011;42175;46.930;9.532;2023-03-01T06:12:42;97.25;;;38.20;;
56267;SDS011;42175;46.930;9.532;2023-03-01T06:15:09;98.82;;;40.63;;
56267;SDS011;42175;46.930;9.532;2023-03-01T06:17:37;94.05;;;35.67;;
56267;SDS011;42175;46.930;9.532;2023-03-01T06:20:06;87.32;;;33.50;;
56267;SDS011;42175;46.930;9.532;2023-03-01T06:22:38;72.97;;;29.63;;
56267;SDS011;42175;46.930;9.532;2023-03-01T06:25:04;79.28;;;31.10;;
56267;SDS011;42175;46.930;9.532;2023-03-01T06:27:31;86.30;;;28.52;;
56267;SDS011;42175;46.930;9.532;2023-03-01T06:29:57;80.90;;;28.02;;
56267;SDS011;42175;46.930;9.532;2023-03-01T06:32:22;71.35;;;25.77;;
56267;SDS011;42175;46.930;9.532;2023-03-01T06:34:49;54.67;;;24.73;;
56267;SDS011;42175;46.930;9.532;2023-03-01T06:37:15;57.50;;;25.33;;
56267;SDS011;42175;46.930;9.532;2023-03-01T06:39:41;57.17;;;22.70;;
56267;SDS011;42175;46.930;9.532;2023-03-01T06:42:07;69.72;;;23.67;;
56267;SDS011;42175;46.930;9.532;2023-03-01T06:44:35;50.28;;;19.27;;
56267;SDS011;42175;46.930;9.532;2023-03-01T06:47:01;46.92;;;18.70;;
56267;SDS011;42175;46.930;9.532;2023-03-01T06:49:28;46.58;;;19.20;;
56267;SDS011;42175;46.930;9.532;2023-03-01T06:51:55;42.45;;;16.55;;
56267;SDS011;42175;46.930;9.532;2023-03-01T06:54:21;42.35;;;16.90;;
56267;SDS011;42175;46.930;9.532;2023-03-01T06:56:47;47.30;;;17.13;;
56267;SDS011;42175;46.930;9.532;2023-03-01T06:59:15;33.00;;;14.88;;
56267;SDS011;42175;46.930;9.532;2023-03-01T07:01:42;45.95;;;15.18;;
56267;SDS011;42175;46.930;9.532;2023-03-01T07:04:08;34.47;;;14.50;;
56267;SDS011;42175;46.930;9.532;2023-03-01T07:06:34;32.42;;;13.27;;
56267;SDS011;42175;46.930;9.532;2023-03-01T07:09:00;33.85;;;13.48;;
56267;SDS011;42175;46.930;9.532;2023-03-01T07:11:26;34.15;;;13.20;;
56267;SDS011;42175;46.930;9.532;2023-03-01T07:13:52;27.20;;;11.90;;
56267;SDS011;42175;46.930;9.532;2023-03-01T07:16:17;25.88;;;12.07;;
56267;SDS011;42175;46.930;9.532;2023-03-01T07:18:45;29.17;;;12.27;;
56267;SDS011;42175;46.930;9.532;2023-03-01T07:21:12;26.73;;;11.07;;
56267;SDS011;42175;46.930;9.532;2023-03-01T07:23:39;28.98;;;11.90;;
56267;SDS011;42175;46.930;9.532;2023-03-01T07:26:05;26.60;;;11.20;;
56267;SDS011;42175;46.930;9.532;2023-03-01T07:28:31;26.52;;;9.65;;
56267;SDS011;42175;46.930;9.532;2023-03-01T07:31:03;20.80;;;9.82;;
56267;SDS011;42175;46.930;9.532;2023-03-01T07:33:30;19.52;;;9.48;;
56267;SDS011;42175;46.930;9.532;2023-03-01T07:35:59;23.58;;;9.55;;
56267;SDS011;42175;46.930;9.532;2023-03-01T07:38:27;30.55;;;9.77;;
56267;SDS011;42175;46.930;9.532;2023-03-01T07:40:54;17.15;;;9.27;;
56267;SDS011;42175;46.930;9.532;2023-03-01T07:43:24;21.00;;;9.65;;
56267;SDS011;42175;46.930;9.532;2023-03-01T07:45:49;18.38;;;9.30;;
56267;SDS011;42175;46.930;9.532;2023-03-01T07:48:15;19.42;;;8.38;;
56267;SDS011;42175;46.930;9.532;2023-03-01T07:50:40;14.70;;;8.63;;
56267;SDS011;42175;46.930;9.532;2023-03-01T07:53:06;13.15;;;8.50;;
56267;SDS011;42175;46.930;9.532;2023-03-01T07:55:32;14.02;;;8.23;;
56267;SDS011;42175;46.930;9.532;2023-03-01T07:57:57;17.48;;;7.57;;
56267;SDS011;42175;46.930;9.532;2023-03-01T08:00:23;17.70;;;8.45;;
56267;SDS011;42175;46.930;9.532;2023-03-01T08:02:49;12.35;;;7.45;;
56267;SDS011;42175;46.930;9.532;2023-03-01T08:05:14;12.77;;;7.00;;
56267;SDS011;42175;46.930;9.532;2023-03-01T08:07:40;17.70;;;7.57;;
56267;SDS011;42175;46.930;9.532;2023-03-01T08:10:06;17.63;;;7.63;;
56267;SDS011;42175;46.930;9.532;2023-03-01T08:12:32;15.07;;;7.60;;
56267;SDS011;42175;46.930;9.532;2023-03-01T08:14:58;15.48;;;8.35;;
56267;SDS011;42175;46.930;9.532;2023-03-01T08:17:24;13.63;;;7.63;;
56267;SDS011;42175;46.930;9.532;2023-03-01T08:19:49;15.75;;;8.40;;
56267;SDS011;42175;46.930;9.532;2023-03-01T08:22:15;10.80;;;6.93;;
56267;SDS011;42175;46.930;9.532;2023-03-01T08:24:41;13.18;;;6.82;;
56267;SDS011;42175;46.930;9.532;2023-03-01T08:27:06;11.95;;;6.68;;
56267;SDS011;42175;46.930;9.532;2023-03-01T08:29:32;13.57;;;6.80;;
56267;SDS011;42175;46.930;9.532;2023-03-01T08:31:58;9.23;;;6.45;;
56267;SDS011;42175;46.930;9.532;2023-03-01T08:34:24;9.90;;;6.68;;
56267;SDS011;42175;46.930;9.532;2023-03-01T08:36:50;9.82;;;6.22;;
56267;SDS011;42175;46.930;9.532;2023-03-01T08:39:17;13.30;;;6.32;;
56267;SDS011;42175;46.930;9.532;2023-03-01T08:41:45;15.98;;;7.88;;
56267;SDS011;42175;46.930;9.532;2023-03-01T08:44:12;11.77;;;7.15;;
56267;SDS011;42175;46.930;9.532;2023-03-01T08:46:39;8.77;;;6.32;;
56267;SDS011;42175;46.930;9.532;2023-03-01T08:49:07;12.30;;;7.22;;
56267;SDS011;42175;46.930;9.532;2023-03-01T08:51:34;15.15;;;7.05;;
56267;SDS011;42175;46.930;9.532;2023-03-01T08:54:06;10.70;;;6.47;;
56267;SDS011;42175;46.930;9.532;2023-03-01T08:56:36;9.07;;;6.60;;
56267;SDS011;42175;46.930;9.532;2023-03-01T08:59:02;9.30;;;6.28;;
56267;SDS011;42175;46.930;9.532;2023-03-01T09:01:28;12.13;;;6.85;;
56267;SDS011;42175;46.930;9.532;2023-03-01T09:03:54;12.77;;;6.43;;
56267;SDS011;42175;46.930;9.532;2023-03-01T09:06:20;12.38;;;6.63;;
56267;SDS011;42175;46.930;9.532;2023-03-01T09:08:47;10.40;;;6.63;;
56267;SDS011;42175;46.930;9.532;2023-03-01T09:11:15;11.80;;;7.15;;
56267;SDS011;42175;46.930;9.532;2023-03-01T09:13:44;12.88;;;6.97;;
56267;SDS011;42175;46.930;9.532;2023-03-01T09:16:12;11.93;;;6.45;;
56267;SDS011;42175;46.930;9.532;2023-03-01T09:18:39;11.63;;;7.18;;
56267;SDS011;42175;46.930;9.532;2023-03-01T09:21:06;9.18;;;5.97;;
56267;SDS011;42175;46.930;9.532;2023-03-01T09:23:39;13.07;;;6.88;;
56267;SDS011;42175;46.930;9.532;2023-03-01T09:26:10;8.98;;;6.25;;
56267;SDS011;42175;46.930;9.532;2023-03-01T09:28:39;10.35;;;6.53;;
56267;SDS011;42175;46.930;9.532;2023-03-01T09:31:08;13.70;;;6.03;;
56267;SDS011;42175;46.930;9.532;2023-03-01T09:33:33;8.98;;;5.93;;
56267;SDS011;42175;46.930;9.532;2023-03-01T09:36:03;12.18;;;6.18;;
56267;SDS011;42175;46.930;9.532;2023-03-01T09:38:31;10.82;;;5.97;;
56267;SDS011;42175;46.930;9.532;2023-03-01T09:40:56;10.82;;;6.53;;
56267;SDS011;42175;46.930;9.532;2023-03-01T09:46:21;14.88;;;5.90;;
56267;SDS011;42175;46.930;9.532;2023-03-01T09:48:50;8.85;;;5.93;;
56267;SDS011;42175;46.930;9.532;2023-03-01T09:51:24;11.13;;;6.00;;
56267;SDS011;42175;46.930;9.532;2023-03-01T09:54:00;8.35;;;5.32;;
56267;SDS011;42175;46.930;9.532;2023-03-01T09:56:38;8.75;;;5.95;;
56267;SDS011;42175;46.930;9.532;2023-03-01T10:01:43;9.43;;;5.60;;
56267;SDS011;42175;46.930;9.532;2023-03-01T10:04:32;7.78;;;5.60;;
56267;SDS011;42175;46.930;9.532;2023-03-01T10:09:36;8.63;;;5.78;;
56267;SDS011;42175;46.930;9.532;2023-03-01T10:12:11;10.02;;;5.78;;
56267;SDS011;42175;46.930;9.532;2023-03-01T10:22:48;9.65;;;5.78;;
56267;SDS011;42175;46.930;9.532;2023-03-01T10:25:34;8.95;;;5.57;;
56267;SDS011;42175;46.930;9.532;2023-03-01T10:28:24;10.18;;;6.30;;
56267;SDS011;42175;46.930;9.532;2023-03-01T10:30:56;9.70;;;5.60;;
56267;SDS011;42175;46.930;9.532;2023-03-01T10:33:27;7.68;;;5.50;;
56267;SDS011;42175;46.930;9.532;2023-03-01T10:35:57;8.20;;;5.55;;
56267;SDS011;42175;46.930;9.532;2023-03-01T10:38:23;8.38;;;4.82;;
56267;SDS011;42175;46.930;9.532;2023-03-01T10:40:59;8.68;;;5.18;;
56267;SDS011;42175;46.930;9.532;2023-03-01T10:43:48;10.02;;;5.85;;
56267;SDS011;42175;46.930;9.532;2023-03-01T10:51:48;9.90;;;5.05;;
56267;SDS011;42175;46.930;9.532;2023-03-01T10:54:19;9.00;;;5.65;;
56267;SDS011;42175;46.930;9.532;2023-03-01T10:56:56;9.27;;;4.93;;
56267;SDS011;42175;46.930;9.532;2023-03-01T11:02:01;8.15;;;4.88;;
56267;SDS011;42175;46.930;9.532;2023-03-01T11:04:27;7.80;;;4.87;;
56267;SDS011;42175;46.930;9.532;2023-03-01T11:06:59;6.70;;;4.50;;
56267;SDS011;42175;46.930;9.532;2023-03-01T11:09:30;6.57;;;4.80;;
56267;SDS011;42175;46.930;9.532;2023-03-01T11:12:04;8.30;;;5.30;;
56267;SDS011;42175;46.930;9.532;2023-03-01T11:14:38;11.48;;;5.80;;
56267;SDS011;42175;46.930;9.532;2023-03-01T11:20:05;6.75;;;5.32;;
56267;SDS011;42175;46.930;9.532;2023-03-01T11:22:38;7.80;;;4.72;;
56267;SDS011;42175;46.930;9.532;2023-03-01T11:25:13;6.80;;;4.68;;
56267;SDS011;42175;46.930;9.532;2023-03-01T11:27:41;6.40;;;4.97;;
56267;SDS011;42175;46.930;9.532;2023-03-01T11:33:01;9.50;;;6.00;;
56267;SDS011;42175;46.930;9.532;2023-03-01T11:35:35;7.25;;;4.80;;
56267;SDS011;42175;46.930;9.532;2023-03-01T11:38:24;6.40;;;4.63;;
56267;SDS011;42175;46.930;9.532;2023-03-01T11:40:54;6.82;;;4.57;;
56267;SDS011;42175;46.930;9.532;2023-03-01T11:46:19;6.85;;;4.28;;
56267;SDS011;42175;46.930;9.532;2023-03-01T11:54:51;7.00;;;4.05;;
56267;SDS011;42175;46.930;9.532;2023-03-01T11:58:03;6.43;;;4.50;;
56267;SDS011;42175;46.930;9.532;2023-03-01T12:15:03;8.23;;;4.70;;
56267;SDS011;42175;46.930;9.532;2023-03-01T12:17:55;6.63;;;4.72;;
56267;SDS011;42175;46.930;9.532;2023-03-01T12:20:35;6.22;;;4.15;;
56267;SDS011;42175;46.930;9.532;2023-03-01T12:28:55;5.70;;;4.03;;
56267;SDS011;42175;46.930;9.532;2023-03-01T12:40:02;8.25;;;4.50;;
56267;SDS011;42175;46.930;9.532;2023-03-01T12:42:48;5.65;;;3.80;;
56267;SDS011;42175;46.930;9.532;2023-03-01T12:48:07;5.20;;;4.38;;
56267;SDS011;42175;46.930;9.532;2023-03-01T12:50:46;6.82;;;4.97;;
56267;SDS011;42175;46.930;9.532;2023-03-01T12:53:25;5.55;;;3.90;;
56267;SDS011;42175;46.930;9.532;2023-03-01T12:56:01;7.22;;;4.00;;
56267;SDS011;42175;46.930;9.532;2023-03-01T13:04:08;8.00;;;4.20;;
56267;SDS011;42175;46.930;9.532;2023-03-01T13:06:44;8.27;;;4.18;;
56267;SDS011;42175;46.930;9.532;2023-03-01T13:17:47;7.65;;;4.25;;
56267;SDS011;42175;46.930;9.532;2023-03-01T13:20:20;8.02;;;3.55;;
56267;SDS011;42175;46.930;9.532;2023-03-01T13:23:40;6.90;;;3.80;;
56267;SDS011;42175;46.930;9.532;2023-03-01T13:33:47;5.78;;;4.30;;
56267;SDS011;42175;46.930;9.532;2023-03-01T13:39:01;7.43;;;4.20;;
56267;SDS011;42175;46.930;9.532;2023-03-01T13:41:54;5.50;;;3.90;;
56267;SDS011;42175;46.930;9.532;2023-03-01T13:47:13;4.30;;;3.72;;
56267;SDS011;42175;46.930;9.532;2023-03-01T13:49:52;5.25;;;4.40;;
56267;SDS011;42175;46.930;9.532;2023-03-01T13:52:40;6.05;;;4.07;;
56267;SDS011;42175;46.930;9.532;2023-03-01T13:55:16;5.03;;;3.97;;
56267;SDS011;42175;46.930;9.532;2023-03-01T13:58:01;5.55;;;4.47;;
56267;SDS011;42175;46.930;9.532;2023-03-01T14:00:40;6.70;;;4.43;;
56267;SDS011;42175;46.930;9.532;2023-03-01T14:05:40;5.28;;;4.30;;
56267;SDS011;42175;46.930;9.532;2023-03-01T14:08:22;5.88;;;4.22;;
56267;SDS011;42175;46.930;9.532;2023-03-01T14:14:02;4.70;;;3.90;;
56267;SDS011;42175;46.930;9.532;2023-03-01T14:16:56;6.43;;;4.15;;
56267;SDS011;42175;46.930;9.532;2023-03-01T14:20:01;5.63;;;4.22;;
56267;SDS011;42175;46.930;9.532;2023-03-01T14:22:34;6.85;;;4.55;;
56267;SDS011;42175;46.930;9.532;2023-03-01T14:25:03;5.78;;;4.50;;
56267;SDS011;42175;46.930;9.532;2023-03-01T14:27:42;5.53;;;4.40;;
56267;SDS011;42175;46.930;9.532;2023-03-01T14:30:10;5.18;;;3.97;;
56267;SDS011;42175;46.930;9.532;2023-03-01T14:32:48;6.10;;;4.18;;
56267;SDS011;42175;46.930;9.532;2023-03-01T14:35:23;5.15;;;4.07;;
56267;SDS011;42175;46.930;9.532;2023-03-01T14:37:51;6.32;;;4.28;;
56267;SDS011;42175;46.930;9.532;2023-03-01T14:40:24;5.07;;;3.88;;
56267;SDS011;42175;46.930;9.532;2023-03-01T14:42:58;5.35;;;4.57;;
56267;SDS011;42175;46.930;9.532;2023-03-01T14:45:26;5.43;;;4.65;;
56267;SDS011;42175;46.930;9.532;2023-03-01T14:47:54;8.95;;;4.45;;
56267;SDS011;42175;46.930;9.532;2023-03-01T14:50:27;5.15;;;4.00;;
56267;SDS011;42175;46.930;9.532;2023-03-01T14:52:58;5.25;;;3.92;;
56267;SDS011;42175;46.930;9.532;2023-03-01T14:55:34;6.35;;;3.92;;
56267;SDS011;42175;46.930;9.532;2023-03-01T14:58:08;6.68;;;4.47;;
56267;SDS011;42175;46.930;9.532;2023-03-01T15:00:38;7.75;;;3.95;;
56267;SDS011;42175;46.930;9.532;2023-03-01T15:03:13;6.40;;;4.00;;
56267;SDS011;42175;46.930;9.532;2023-03-01T15:05:45;5.45;;;4.10;;
56267;SDS011;42175;46.930;9.532;2023-03-01T15:08:16;5.78;;;4.43;;
56267;SDS011;42175;46.930;9.532;2023-03-01T15:10:55;4.65;;;3.97;;
56267;SDS011;42175;46.930;9.532;2023-03-01T15:13:23;8.85;;;3.85;;
56267;SDS011;42175;46.930;9.532;2023-03-01T15:15:51;8.55;;;4.63;;
56267;SDS011;42175;46.930;9.532;2023-03-01T15:18:22;11.20;;;4.32;;
56267;SDS011;42175;46.930;9.532;2023-03-01T15:20:52;11.05;;;4.30;;
56267;SDS011;42175;46.930;9.532;2023-03-01T15:23:28;9.30;;;4.10;;
56267;SDS011;42175;46.930;9.532;2023-03-01T15:25:55;13.75;;;4.32;;
56267;SDS011;42175;46.930;9.532;2023-03-01T15:28:26;8.73;;;4.10;;
56267;SDS011;42175;46.930;9.532;2023-03-01T15:31:13;8.43;;;4.55;;
56267;SDS011;42175;46.930;9.532;2023-03-01T15:34:11;6.13;;;4.55;;
56267;SDS011;42175;46.930;9.532;2023-03-01T15:36:48;8.27;;;4.45;;
56267;SDS011;42175;46.930;9.532;2023-03-01T15:41:55;7.20;;;4.53;;
56267;SDS011;42175;46.930;9.532;2023-03-01T15:46:54;10.47;;;5.10;;
56267;SDS011;42175;46.930;9.532;2023-03-01T15:49:25;7.63;;;4.50;;
56267;SDS011;42175;46.930;9.532;2023-03-01T15:52:19;5.53;;;4.43;;
56267;SDS011;42175;46.930;9.532;2023-03-01T15:54:59;9.63;;;4.88;;
56267;SDS011;42175;46.930;9.532;2023-03-01T15:57:27;15.02;;;4.80;;
56267;SDS011;42175;46.930;9.532;2023-03-01T15:59:53;7.57;;;5.15;;
56267;SDS011;42175;46.930;9.532;2023-03-01T16:02:20;9.48;;;4.40;;
56267;SDS011;42175;46.930;9.532;2023-03-01T16:04:46;8.07;;;4.97;;
56267;SDS011;42175;46.930;9.532;2023-03-01T16:07:14;8.85;;;4.18;;
56267;SDS011;42175;46.930;9.532;2023-03-01T16:09:40;6.38;;;3.95;;
56267;SDS011;42175;46.930;9.532;2023-03-01T16:12:09;10.52;;;4.97;;
56267;SDS011;42175;46.930;9.532;2023-03-01T16:14:39;9.65;;;4.63;;
56267;SDS011;42175;46.930;9.532;2023-03-01T16:17:05;8.27;;;4.30;;
56267;SDS011;42175;46.930;9.532;2023-03-01T16:19:33;7.28;;;4.47;;
56267;SDS011;42175;46.930;9.532;2023-03-01T16:21:58;5.60;;;4.28;;
56267;SDS011;42175;46.930;9.532;2023-03-01T16:24:24;7.10;;;4.30;;
56267;SDS011;42175;46.930;9.532;2023-03-01T16:26:50;7.45;;;4.80;;
56267;SDS011;42175;46.930;9.532;2023-03-01T16:29:16;5.93;;;4.55;;
56267;SDS011;42175;46.930;9.532;2023-03-01T16:31:42;8.52;;;5.05;;
56267;SDS011;42175;46.930;9.532;2023-03-01T16:34:07;6.82;;;4.28;;
56267;SDS011;42175;46.930;9.532;2023-03-01T16:36:33;7.82;;;4.70;;
56267;SDS011;42175;46.930;9.532;2023-03-01T16:39:00;8.48;;;4.68;;
56267;SDS011;42175;46.930;9.532;2023-03-01T16:41:26;11.45;;;4.28;;
56267;SDS011;42175;46.930;9.532;2023-03-01T16:43:52;6.28;;;5.10;;
56267;SDS011;42175;46.930;9.532;2023-03-01T16:46:22;6.60;;;4.72;;
56267;SDS011;42175;46.930;9.532;2023-03-01T16:48:53;8.23;;;4.90;;
56267;SDS011;42175;46.930;9.532;2023-03-01T16:51:20;7.90;;;4.35;;
56267;SDS011;42175;46.930;9.532;2023-03-01T16:53:47;5.70;;;4.45;;
56267;SDS011;42175;46.930;9.532;2023-03-01T16:56:13;5.05;;;4.20;;
56267;SDS011;42175;46.930;9.532;2023-03-01T16:58:40;7.38;;;4.57;;